sensor_id;sensor_type;location;lat;lon;timestamp;temperature;humidity
4566;DHT22;2295;51.050;14.608;2023-02-28T00:02:28;-3.40;99.90
4566;DHT22;2295;51.050;14.608;2023-02-28T00:04:58;-3.40;99.90
4566;DHT22;2295;51.050;14.608;2023-02-28T00:07:41;-3.50;99.90
4566;DHT22;2295;51.050;14.608;2023-02-28T00:10:26;-3.50;99.90
4566;DHT22;2295;51.050;14.608;2023-02-28T00:13:19;-3.60;99.90
4566;DHT22;2295;51.050;14.608;2023-02-28T00:16:00;-3.60;99.90
4566;DHT22;2295;51.050;14.608;2023-02-28T00:18:39;-3.70;99.90
4566;DHT22;2295;51.050;14.608;2023-02-28T00:21:09;-3.70;99.90
4566;DHT22;2295;51.050;14.608;2023-02-28T00:23:43;-3.80;99.90
4566;DHT22;2295;51.050;14.608;2023-02-28T00:26:23;-3.90;99.90
4566;DHT22;2295;51.050;14.608;2023-02-28T00:28:59;-3.90;99.90
4566;DHT22;2295;51.050;14.608;2023-02-28T00:31:36;-4.00;99.90
4566;DHT22;2295;51.050;14.608;2023-02-28T00:34:22;-4.00;99.90
4566;DHT22;2295;51.050;14.608;2023-02-28T00:37:19;-4.20;99.90
4566;DHT22;2295;51.050;14.608;2023-02-28T00:39:54;-4.30;99.90
4566;DHT22;2295;51.050;14.608;2023-02-28T00:42:38;-4.40;99.90
4566;DHT22;2295;51.050;14.608;2023-02-28T00:45:45;-4.50;99.90
4566;DHT22;2295;51.050;14.608;2023-02-28T00:52:22;-4.80;99.90
4566;DHT22;2295;51.050;14.608;2023-02-28T00:55:32;-5.00;99.90
4566;DHT22;2295;51.050;14.608;2023-02-28T00:58:53;-5.10;99.90
4566;DHT22;2295;51.050;14.608;2023-02-28T01:13:38;-5.50;99.90
4566;DHT22;2295;51.050;14.608;2023-02-28T01:16:50;-5.60;99.90
4566;DHT22;2295;51.050;14.608;2023-02-28T01:20:37;-5.70;99.90
4566;DHT22;2295;51.050;14.608;2023-02-28T01:41:27;-6.30;99.90
4566;DHT22;2295;51.050;14.608;2023-02-28T01:45:21;-6.40;99.90
4566;DHT22;2295;51.050;14.608;2023-02-28T01:49:16;-6.50;99.90
4566;DHT22;2295;51.050;14.608;2023-02-28T01:52:53;-6.60;99.90
4566;DHT22;2295;51.050;14.608;2023-02-28T03:08:56;-6.30;99.90
4566;DHT22;2295;51.050;14.608;2023-02-28T03:13:00;-6.20;99.90
4566;DHT22;2295;51.050;14.608;2023-02-28T03:26:04;-5.90;99.90
4566;DHT22;2295;51.050;14.608;2023-02-28T03:29:56;-5.90;99.90
4566;DHT22;2295;51.050;14.608;2023-02-28T03:33:26;-5.90;99.90
4566;DHT22;2295;51.050;14.608;2023-02-28T03:36:55;-6.00;99.90
4566;DHT22;2295;51.050;14.608;2023-02-28T04:15:25;-5.60;99.90
4566;DHT22;2295;51.050;14.608;2023-02-28T04:18:38;-5.60;99.90
4566;DHT22;2295;51.050;14.608;2023-02-28T04:21:59;-5.60;99.90
4566;DHT22;2295;51.050;14.608;2023-02-28T04:26:09;-5.40;99.90
4566;DHT22;2295;51.050;14.608;2023-02-28T04:50:37;-5.10;99.90
4566;DHT22;2295;51.050;14.608;2023-02-28T04:53:22;-5.10;99.90
4566;DHT22;2295;51.050;14.608;2023-02-28T04:56:59;-5.00;99.90
4566;DHT22;2295;51.050;14.608;2023-02-28T05:02:44;-5.00;99.90
4566;DHT22;2295;51.050;14.608;2023-02-28T05:06:19;-4.90;99.90
4566;DHT22;2295;51.050;14.608;2023-02-28T05:08:53;-4.90;99.90
4566;DHT22;2295;51.050;14.608;2023-02-28T05:11:52;-4.80;99.90
4566;DHT22;2295;51.050;14.608;2023-02-28T05:17:55;-4.80;99.90
4566;DHT22;2295;51.050;14.608;2023-02-28T05:21:12;-4.80;99.90
4566;DHT22;2295;51.050;14.608;2023-02-28T05:24:37;-4.80;99.90
4566;DHT22;2295;51.050;14.608;2023-02-28T05:28:28;-4.80;99.90
4566;DHT22;2295;51.050;14.608;2023-02-28T05:30:53;-4.80;99.90
4566;DHT22;2295;51.050;14.608;2023-02-28T05:48:18;-5.00;99.90
4566;DHT22;2295;51.050;14.608;2023-02-28T05:51:39;-5.10;99.90
4566;DHT22;2295;51.050;14.608;2023-02-28T05:54:43;-5.20;99.90
4566;DHT22;2295;51.050;14.608;2023-02-28T05:58:04;-5.30;99.90
4566;DHT22;2295;51.050;14.608;2023-02-28T06:01:21;-5.40;99.90
4566;DHT22;2295;51.050;14.608;2023-02-28T06:11:12;-5.60;99.90
4566;DHT22;2295;51.050;14.608;2023-02-28T06:22:08;-5.80;99.90
4566;DHT22;2295;51.050;14.608;2023-02-28T06:25:21;-5.80;99.90
4566;DHT22;2295;51.050;14.608;2023-02-28T06:35:19;-5.80;99.90
4566;DHT22;2295;51.050;14.608;2023-02-28T06:38:40;-5.60;99.90
4566;DHT22;2295;51.050;14.608;2023-02-28T06:41:45;-5.60;99.90
4566;DHT22;2295;51.050;14.608;2023-02-28T06:44:39;-5.50;99.90
4566;DHT22;2295;51.050;14.608;2023-02-28T06:47:22;-5.40;99.90
4566;DHT22;2295;51.050;14.608;2023-02-28T06:50:00;-5.20;99.90
4566;DHT22;2295;51.050;14.608;2023-02-28T06:52:37;-5.10;99.90
4566;DHT22;2295;51.050;14.608;2023-02-28T06:55:23;-4.90;99.90
4566;DHT22;2295;51.050;14.608;2023-02-28T06:57:58;-4.70;99.90
4566;DHT22;2295;51.050;14.608;2023-02-28T07:00:58;-4.50;99.90
4566;DHT22;2295;51.050;14.608;2023-02-28T07:03:52;-4.20;99.90
4566;DHT22;2295;51.050;14.608;2023-02-28T07:06:48;-4.00;99.90
4566;DHT22;2295;51.050;14.608;2023-02-28T07:09:38;-3.70;99.90
4566;DHT22;2295;51.050;14.608;2023-02-28T07:12:26;-3.40;99.90
4566;DHT22;2295;51.050;14.608;2023-02-28T07:15:18;-3.20;99.90
4566;DHT22;2295;51.050;14.608;2023-02-28T07:18:07;-3.00;99.90
4566;DHT22;2295;51.050;14.608;2023-02-28T07:21:09;-2.80;99.90
4566;DHT22;2295;51.050;14.608;2023-02-28T07:24:08;-2.60;99.90
4566;DHT22;2295;51.050;14.608;2023-02-28T07:26:50;-2.40;99.90
4566;DHT22;2295;51.050;14.608;2023-02-28T07:29:31;-2.20;99.90
4566;DHT22;2295;51.050;14.608;2023-02-28T07:32:12;-2.10;99.90
4566;DHT22;2295;51.050;14.608;2023-02-28T07:34:47;-1.90;99.90
4566;DHT22;2295;51.050;14.608;2023-02-28T07:37:22;-1.70;99.90
4566;DHT22;2295;51.050;14.608;2023-02-28T07:39:51;-1.40;99.90
4566;DHT22;2295;51.050;14.608;2023-02-28T07:42:19;-0.90;99.90
4566;DHT22;2295;51.050;14.608;2023-02-28T07:44:48;-0.60;99.90
4566;DHT22;2295;51.050;14.608;2023-02-28T07:47:19;-0.40;99.90
4566;DHT22;2295;51.050;14.608;2023-02-28T07:49:49;-0.20;99.90
4566;DHT22;2295;51.050;14.608;2023-02-28T07:52:19;0.00;99.90
4566;DHT22;2295;51.050;14.608;2023-02-28T07:54:48;0.30;99.90
4566;DHT22;2295;51.050;14.608;2023-02-28T07:57:16;0.90;99.90
4566;DHT22;2295;51.050;14.608;2023-02-28T07:59:45;1.00;99.90
4566;DHT22;2295;51.050;14.608;2023-02-28T08:02:14;1.30;99.90
4566;DHT22;2295;51.050;14.608;2023-02-28T08:04:43;1.70;99.90
4566;DHT22;2295;51.050;14.608;2023-02-28T08:07:12;1.90;99.90
4566;DHT22;2295;51.050;14.608;2023-02-28T08:09:43;1.80;99.90
4566;DHT22;2295;51.050;14.608;2023-02-28T08:12:12;2.10;99.90
4566;DHT22;2295;51.050;14.608;2023-02-28T08:14:41;2.20;99.90
4566;DHT22;2295;51.050;14.608;2023-02-28T08:17:12;2.30;99.90
4566;DHT22;2295;51.050;14.608;2023-02-28T08:19:45;2.20;99.90
4566;DHT22;2295;51.050;14.608;2023-02-28T08:22:14;2.00;99.90
4566;DHT22;2295;51.050;14.608;2023-02-28T08:24:44;1.70;99.90
4566;DHT22;2295;51.050;14.608;2023-02-28T08:27:12;1.50;99.90
4566;DHT22;2295;51.050;14.608;2023-02-28T08:29:41;1.60;99.90
4566;DHT22;2295;51.050;14.608;2023-02-28T08:32:09;1.70;99.90
4566;DHT22;2295;51.050;14.608;2023-02-28T08:34:55;1.90;99.90
4566;DHT22;2295;51.050;14.608;2023-02-28T08:37:23;1.90;99.90
4566;DHT22;2295;51.050;14.608;2023-02-28T08:39:53;2.00;99.90
4566;DHT22;2295;51.050;14.608;2023-02-28T08:42:22;2.30;99.90
4566;DHT22;2295;51.050;14.608;2023-02-28T08:44:51;2.30;99.30
4566;DHT22;2295;51.050;14.608;2023-02-28T08:47:19;2.40;98.20
4566;DHT22;2295;51.050;14.608;2023-02-28T08:49:48;2.40;98.50
4566;DHT22;2295;51.050;14.608;2023-02-28T08:52:17;2.30;91.70
4566;DHT22;2295;51.050;14.608;2023-02-28T08:54:46;2.40;95.20
4566;DHT22;2295;51.050;14.608;2023-02-28T08:57:16;2.70;94.20
4566;DHT22;2295;51.050;14.608;2023-02-28T08:59:45;3.10;89.50
4566;DHT22;2295;51.050;14.608;2023-02-28T09:02:16;3.90;82.40
4566;DHT22;2295;51.050;14.608;2023-02-28T09:04:44;3.20;78.20
4566;DHT22;2295;51.050;14.608;2023-02-28T09:07:15;2.60;85.00
4566;DHT22;2295;51.050;14.608;2023-02-28T09:09:44;3.20;82.60
4566;DHT22;2295;51.050;14.608;2023-02-28T09:12:24;3.70;78.20
4566;DHT22;2295;51.050;14.608;2023-02-28T09:14:52;4.10;75.90
4566;DHT22;2295;51.050;14.608;2023-02-28T09:17:21;4.40;73.50
4566;DHT22;2295;51.050;14.608;2023-02-28T09:19:56;4.20;69.40
4566;DHT22;2295;51.050;14.608;2023-02-28T09:22:25;3.60;73.20
4566;DHT22;2295;51.050;14.608;2023-02-28T09:24:55;2.70;76.70
4566;DHT22;2295;51.050;14.608;2023-02-28T09:27:34;2.90;80.60
4566;DHT22;2295;51.050;14.608;2023-02-28T09:30:02;2.90;79.30
4566;DHT22;2295;51.050;14.608;2023-02-28T09:32:32;2.70;85.90
4566;DHT22;2295;51.050;14.608;2023-02-28T09:35:00;3.30;85.90
4566;DHT22;2295;51.050;14.608;2023-02-28T09:37:29;3.40;79.00
4566;DHT22;2295;51.050;14.608;2023-02-28T09:39:58;3.60;75.60
4566;DHT22;2295;51.050;14.608;2023-02-28T09:42:33;3.20;74.50
4566;DHT22;2295;51.050;14.608;2023-02-28T09:45:06;3.50;82.50
4566;DHT22;2295;51.050;14.608;2023-02-28T09:47:43;4.10;77.00
4566;DHT22;2295;51.050;14.608;2023-02-28T09:50:18;4.50;72.60
4566;DHT22;2295;51.050;14.608;2023-02-28T09:52:49;5.20;69.10
4566;DHT22;2295;51.050;14.608;2023-02-28T09:55:22;5.30;68.10
4566;DHT22;2295;51.050;14.608;2023-02-28T09:57:56;4.60;69.20
4566;DHT22;2295;51.050;14.608;2023-02-28T10:00:32;4.70;70.70
4566;DHT22;2295;51.050;14.608;2023-02-28T10:03:19;4.60;68.50
4566;DHT22;2295;51.050;14.608;2023-02-28T10:05:54;4.70;67.20
4566;DHT22;2295;51.050;14.608;2023-02-28T10:08:27;3.90;67.30
4566;DHT22;2295;51.050;14.608;2023-02-28T10:10:58;4.10;70.00
4566;DHT22;2295;51.050;14.608;2023-02-28T10:13:35;4.50;71.50
4566;DHT22;2295;51.050;14.608;2023-02-28T10:16:07;4.80;70.30
4566;DHT22;2295;51.050;14.608;2023-02-28T10:18:43;5.20;70.40
4566;DHT22;2295;51.050;14.608;2023-02-28T10:21:20;5.70;66.80
4566;DHT22;2295;51.050;14.608;2023-02-28T10:23:53;5.80;64.60
4566;DHT22;2295;51.050;14.608;2023-02-28T10:26:26;5.90;65.10
4566;DHT22;2295;51.050;14.608;2023-02-28T10:28:59;5.80;66.40
4566;DHT22;2295;51.050;14.608;2023-02-28T10:31:27;5.90;64.70
4566;DHT22;2295;51.050;14.608;2023-02-28T10:33:56;5.30;64.00
4566;DHT22;2295;51.050;14.608;2023-02-28T10:36:24;4.90;65.80
4566;DHT22;2295;51.050;14.608;2023-02-28T10:38:55;4.10;68.90
4566;DHT22;2295;51.050;14.608;2023-02-28T10:41:42;2.90;78.40
4566;DHT22;2295;51.050;14.608;2023-02-28T10:44:17;2.60;82.80
4566;DHT22;2295;51.050;14.608;2023-02-28T10:46:50;2.50;83.10
4566;DHT22;2295;51.050;14.608;2023-02-28T10:49:22;2.70;88.40
4566;DHT22;2295;51.050;14.608;2023-02-28T10:51:52;3.40;82.60
4566;DHT22;2295;51.050;14.608;2023-02-28T10:54:27;3.60;84.10
4566;DHT22;2295;51.050;14.608;2023-02-28T10:57:15;2.90;82.30
4566;DHT22;2295;51.050;14.608;2023-02-28T10:59:46;2.50;90.40
4566;DHT22;2295;51.050;14.608;2023-02-28T11:02:31;2.40;87.90
4566;DHT22;2295;51.050;14.608;2023-02-28T11:05:27;3.00;90.30
4566;DHT22;2295;51.050;14.608;2023-02-28T11:07:59;3.20;81.00
4566;DHT22;2295;51.050;14.608;2023-02-28T11:10:32;3.50;77.60
4566;DHT22;2295;51.050;14.608;2023-02-28T11:13:02;3.80;81.20
4566;DHT22;2295;51.050;14.608;2023-02-28T11:15:35;3.70;76.70
4566;DHT22;2295;51.050;14.608;2023-02-28T11:18:20;3.80;77.90
4566;DHT22;2295;51.050;14.608;2023-02-28T11:20:52;3.70;81.30
4566;DHT22;2295;51.050;14.608;2023-02-28T11:23:24;3.70;77.20
4566;DHT22;2295;51.050;14.608;2023-02-28T11:25:57;3.90;77.90
4566;DHT22;2295;51.050;14.608;2023-02-28T11:28:29;3.80;76.70
4566;DHT22;2295;51.050;14.608;2023-02-28T11:31:15;3.00;76.70
4566;DHT22;2295;51.050;14.608;2023-02-28T11:33:45;2.90;82.00
4566;DHT22;2295;51.050;14.608;2023-02-28T11:36:19;2.80;84.70
4566;DHT22;2295;51.050;14.608;2023-02-28T11:38:53;2.80;89.80
4566;DHT22;2295;51.050;14.608;2023-02-28T11:41:34;2.70;89.20
4566;DHT22;2295;51.050;14.608;2023-02-28T11:44:22;2.60;85.90
4566;DHT22;2295;51.050;14.608;2023-02-28T11:46:56;2.40;91.70
4566;DHT22;2295;51.050;14.608;2023-02-28T11:49:32;2.10;89.10
4566;DHT22;2295;51.050;14.608;2023-02-28T11:52:06;2.00;94.10
4566;DHT22;2295;51.050;14.608;2023-02-28T11:54:59;2.10;97.40
4566;DHT22;2295;51.050;14.608;2023-02-28T11:57:38;2.10;93.00
4566;DHT22;2295;51.050;14.608;2023-02-28T12:00:25;2.30;95.10
4566;DHT22;2295;51.050;14.608;2023-02-28T12:03:06;2.30;94.40
4566;DHT22;2295;51.050;14.608;2023-02-28T12:05:44;2.20;93.40
4566;DHT22;2295;51.050;14.608;2023-02-28T12:08:23;2.00;94.10
4566;DHT22;2295;51.050;14.608;2023-02-28T12:11:03;1.70;93.70
4566;DHT22;2295;51.050;14.608;2023-02-28T12:13:43;1.70;94.00
4566;DHT22;2295;51.050;14.608;2023-02-28T12:16:33;1.50;94.20
4566;DHT22;2295;51.050;14.608;2023-02-28T12:19:19;1.30;97.50
4566;DHT22;2295;51.050;14.608;2023-02-28T12:22:06;1.30;98.20
4566;DHT22;2295;51.050;14.608;2023-02-28T12:24:51;1.50;99.90
4566;DHT22;2295;51.050;14.608;2023-02-28T12:27:25;1.60;97.60
4566;DHT22;2295;51.050;14.608;2023-02-28T12:29:58;1.60;95.60
4566;DHT22;2295;51.050;14.608;2023-02-28T12:32:30;1.60;97.70
4566;DHT22;2295;51.050;14.608;2023-02-28T12:35:04;1.60;98.50
4566;DHT22;2295;51.050;14.608;2023-02-28T12:37:37;1.60;96.70
4566;DHT22;2295;51.050;14.608;2023-02-28T12:40:12;1.60;99.20
4566;DHT22;2295;51.050;14.608;2023-02-28T12:42:43;1.60;98.50
4566;DHT22;2295;51.050;14.608;2023-02-28T12:45:18;1.50;95.50
4566;DHT22;2295;51.050;14.608;2023-02-28T12:47:52;1.50;97.70
4566;DHT22;2295;51.050;14.608;2023-02-28T12:50:25;1.50;99.90
4566;DHT22;2295;51.050;14.608;2023-02-28T12:53:00;1.50;98.40
4566;DHT22;2295;51.050;14.608;2023-02-28T12:55:35;1.50;98.60
4566;DHT22;2295;51.050;14.608;2023-02-28T12:58:12;1.50;98.10
4566;DHT22;2295;51.050;14.608;2023-02-28T13:00:55;1.60;98.60
4566;DHT22;2295;51.050;14.608;2023-02-28T13:03:52;1.70;99.70
4566;DHT22;2295;51.050;14.608;2023-02-28T13:06:54;1.80;98.50
4566;DHT22;2295;51.050;14.608;2023-02-28T13:09:27;1.80;96.00
4566;DHT22;2295;51.050;14.608;2023-02-28T13:11:57;1.80;95.10
4566;DHT22;2295;51.050;14.608;2023-02-28T13:14:28;1.80;94.00
4566;DHT22;2295;51.050;14.608;2023-02-28T13:17:01;1.80;95.70
4566;DHT22;2295;51.050;14.608;2023-02-28T13:19:32;1.90;96.00
4566;DHT22;2295;51.050;14.608;2023-02-28T13:22:03;1.90;96.20
4566;DHT22;2295;51.050;14.608;2023-02-28T13:24:45;1.90;95.60
4566;DHT22;2295;51.050;14.608;2023-02-28T13:27:36;1.90;96.20
4566;DHT22;2295;51.050;14.608;2023-02-28T13:33:27;1.70;99.90
4566;DHT22;2295;51.050;14.608;2023-02-28T13:36:25;1.90;99.90
4566;DHT22;2295;51.050;14.608;2023-02-28T13:39:54;2.00;98.90
4566;DHT22;2295;51.050;14.608;2023-02-28T13:42:49;1.90;97.70
4566;DHT22;2295;51.050;14.608;2023-02-28T13:46:26;1.90;97.40
4566;DHT22;2295;51.050;14.608;2023-02-28T14:50:22;1.90;99.40
4566;DHT22;2295;51.050;14.608;2023-02-28T14:53:03;1.90;99.10
4566;DHT22;2295;51.050;14.608;2023-02-28T14:58:37;1.80;99.20
4566;DHT22;2295;51.050;14.608;2023-02-28T15:06:45;1.60;99.90
4566;DHT22;2295;51.050;14.608;2023-02-28T15:15:23;1.60;99.30
4566;DHT22;2295;51.050;14.608;2023-02-28T15:21:24;1.40;99.90
4566;DHT22;2295;51.050;14.608;2023-02-28T15:24:12;1.40;99.90
4566;DHT22;2295;51.050;14.608;2023-02-28T15:26:52;1.30;99.90
4566;DHT22;2295;51.050;14.608;2023-02-28T15:29:53;1.30;99.90
4566;DHT22;2295;51.050;14.608;2023-02-28T15:32:38;1.40;99.90
4566;DHT22;2295;51.050;14.608;2023-02-28T15:38:21;1.40;99.90
4566;DHT22;2295;51.050;14.608;2023-02-28T15:41:02;1.30;99.90
4566;DHT22;2295;51.050;14.608;2023-02-28T15:43:46;1.40;99.90
4566;DHT22;2295;51.050;14.608;2023-02-28T15:46:19;1.40;99.90
4566;DHT22;2295;51.050;14.608;2023-02-28T15:48:55;1.40;99.90
4566;DHT22;2295;51.050;14.608;2023-02-28T15:51:27;1.40;99.90
4566;DHT22;2295;51.050;14.608;2023-02-28T15:54:00;1.30;99.90
4566;DHT22;2295;51.050;14.608;2023-02-28T15:56:35;1.10;99.90
4566;DHT22;2295;51.050;14.608;2023-02-28T15:59:07;1.00;99.90
4566;DHT22;2295;51.050;14.608;2023-02-28T16:01:42;0.90;99.90
4566;DHT22;2295;51.050;14.608;2023-02-28T16:04:15;0.80;99.90
4566;DHT22;2295;51.050;14.608;2023-02-28T16:06:44;0.70;99.90
4566;DHT22;2295;51.050;14.608;2023-02-28T16:09:15;0.60;99.90
4566;DHT22;2295;51.050;14.608;2023-02-28T16:11:46;0.50;99.90
4566;DHT22;2295;51.050;14.608;2023-02-28T16:14:20;0.40;99.90
4566;DHT22;2295;51.050;14.608;2023-02-28T16:16:51;0.30;99.90
4566;DHT22;2295;51.050;14.608;2023-02-28T16:19:20;0.10;99.90
4566;DHT22;2295;51.050;14.608;2023-02-28T16:21:48;0.00;99.90
4566;DHT22;2295;51.050;14.608;2023-02-28T16:24:18;-0.20;99.90
4566;DHT22;2295;51.050;14.608;2023-02-28T16:26:49;-0.30;99.90
4566;DHT22;2295;51.050;14.608;2023-02-28T16:29:24;-0.50;99.90
4566;DHT22;2295;51.050;14.608;2023-02-28T16:31:55;-0.60;99.90
4566;DHT22;2295;51.050;14.608;2023-02-28T16:34:24;-0.80;99.90
4566;DHT22;2295;51.050;14.608;2023-02-28T16:36:54;-0.90;99.90
4566;DHT22;2295;51.050;14.608;2023-02-28T16:39:23;-1.10;99.90
4566;DHT22;2295;51.050;14.608;2023-02-28T16:42:01;-1.20;99.90
4566;DHT22;2295;51.050;14.608;2023-02-28T16:44:36;-1.40;99.90
4566;DHT22;2295;51.050;14.608;2023-02-28T16:47:05;-1.50;99.90
4566;DHT22;2295;51.050;14.608;2023-02-28T16:49:34;-1.60;99.90
4566;DHT22;2295;51.050;14.608;2023-02-28T16:52:17;-1.70;99.90
4566;DHT22;2295;51.050;14.608;2023-02-28T16:54:46;-1.80;99.90
4566;DHT22;2295;51.050;14.608;2023-02-28T16:57:54;-1.90;99.90
4566;DHT22;2295;51.050;14.608;2023-02-28T17:00:37;-2.10;99.90
4566;DHT22;2295;51.050;14.608;2023-02-28T17:03:22;-2.10;99.90
4566;DHT22;2295;51.050;14.608;2023-02-28T17:06:00;-2.20;99.90
4566;DHT22;2295;51.050;14.608;2023-02-28T17:08:30;-2.30;99.90
4566;DHT22;2295;51.050;14.608;2023-02-28T17:11:18;-2.30;99.90
4566;DHT22;2295;51.050;14.608;2023-02-28T17:13:54;-2.40;99.90
4566;DHT22;2295;51.050;14.608;2023-02-28T17:16:36;-2.50;99.90
4566;DHT22;2295;51.050;14.608;2023-02-28T17:19:25;-2.50;99.90
4566;DHT22;2295;51.050;14.608;2023-02-28T17:22:31;-2.60;99.90
4566;DHT22;2295;51.050;14.608;2023-02-28T17:25:35;-2.60;99.90
4566;DHT22;2295;51.050;14.608;2023-02-28T17:28:43;-2.60;99.90
4566;DHT22;2295;51.050;14.608;2023-02-28T17:42:33;-2.90;99.90
4566;DHT22;2295;51.050;14.608;2023-02-28T17:45:19;-3.00;99.90
4566;DHT22;2295;51.050;14.608;2023-02-28T17:48:16;-3.10;99.90
4566;DHT22;2295;51.050;14.608;2023-02-28T17:50:54;-3.20;99.90
4566;DHT22;2295;51.050;14.608;2023-02-28T17:53:31;-3.30;99.90
4566;DHT22;2295;51.050;14.608;2023-02-28T17:56:14;-3.30;99.90
4566;DHT22;2295;51.050;14.608;2023-02-28T17:58:57;-3.30;99.90
4566;DHT22;2295;51.050;14.608;2023-02-28T18:01:30;-3.40;99.90
4566;DHT22;2295;51.050;14.608;2023-02-28T18:04:38;-3.40;99.90
4566;DHT22;2295;51.050;14.608;2023-02-28T18:08:05;-3.50;99.90
4566;DHT22;2295;51.050;14.608;2023-02-28T18:10:57;-3.50;99.90
4566;DHT22;2295;51.050;14.608;2023-02-28T18:23:01;-3.70;99.90
4566;DHT22;2295;51.050;14.608;2023-02-28T18:25:39;-3.70;99.90
4566;DHT22;2295;51.050;14.608;2023-02-28T18:28:13;-3.80;99.90
4566;DHT22;2295;51.050;14.608;2023-02-28T18:30:43;-3.80;99.90
4566;DHT22;2295;51.050;14.608;2023-02-28T18:33:17;-3.80;99.90
4566;DHT22;2295;51.050;14.608;2023-02-28T18:36:02;-3.80;99.90
4566;DHT22;2295;51.050;14.608;2023-02-28T18:38:53;-3.90;99.90
4566;DHT22;2295;51.050;14.608;2023-02-28T18:41:27;-3.80;99.90
4566;DHT22;2295;51.050;14.608;2023-02-28T18:44:12;-3.90;99.90
4566;DHT22;2295;51.050;14.608;2023-02-28T18:55:10;-4.10;99.90
4566;DHT22;2295;51.050;14.608;2023-02-28T18:57:49;-4.20;99.90
4566;DHT22;2295;51.050;14.608;2023-02-28T19:00:46;-4.20;99.90
4566;DHT22;2295;51.050;14.608;2023-02-28T19:03:36;-4.30;99.90
